Time;durP1;ratioP1;P1;durP2;ratioP2;P2;SDS_P1;SDS_P2;PMS_P1;PMS_P2;Temp;Humidity;BMP_temperature;BMP_pressure;BME280_temperature;BME280_humidity;BME280_pressure;Samples;Min_cycle;Max_cycle;Signal;HPM_P1;HPM_P2
2023/07/24 00:02:55;;;;;;;4.20;3.10;;;;;;;22.77;59.40;98189.56;227009;1275;22826;-70
2023/07/24 00:08:18;;;;;;;4.50;3.10;;;;;;;22.73;59.50;98195.38;226838;1275;22551;-70
2023/07/24 00:13:44;;;;;;;3.30;2.90;;;;;;;22.66;59.48;98191.29;227022;1275;22576;-71
2023/07/24 00:18:50;;;;;;;3.40;3.10;;;;;;;22.61;59.77;98177.48;226877;1272;22530;-70
2023/07/24 00:24:06;;;;;;;5.10;3.20;;;;;;;22.60;59.83;98177.48;226755;1275;22660;-70
2023/07/24 00:29:37;;;;;;;3.70;3.20;;;;;;;22.56;59.99;98179.61;226942;1275;22530;-70
2023/07/24 00:35:38;;;;;;;3.80;3.10;;;;;;;22.48;60.01;98178.70;226781;1275;22534;-70
2023/07/24 00:41:21;;;;;;;4.90;3.70;;;;;;;22.35;60.12;98169.58;226895;1275;22538;-70
2023/07/24 00:47:17;;;;;;;;;;;;;;;;;;;;;
2023/07/24 00:52:47;;;;;;;3.60;3.20;;;;;;;22.18;60.82;98158.48;226817;1264;22529;-70
2023/07/24 00:58:23;;;;;;;;;;;;;;;;;;;;;
2023/07/24 01:03:53;;;;;;;7.10;3.40;;;;;;;22.00;61.44;98165.77;226948;1275;22530;-71
2023/07/24 01:09:01;;;;;;;4.30;3.10;;;;;;;21.92;61.64;98160.16;226744;1275;22524;-71
2023/07/24 01:14:53;;;;;;;3.90;3.00;;;;;;;21.83;62.06;98158.73;226903;1275;22541;-71
2023/07/24 01:20:38;;;;;;;4.20;3.10;;;;;;;21.75;62.43;98158.67;226980;1275;22529;-72
2023/07/24 01:26:25;;;;;;;;;;;;;;;;;;;;;
2023/07/24 01:31:37;;;;;;;4.30;2.90;;;;;;;21.59;62.79;98158.30;226839;1275;22545;-71
2023/07/24 01:37:09;;;;;;;4.80;3.20;;;;;;;21.50;63.11;98153.98;226897;1272;22509;-71
2023/07/24 01:43:15;;;;;;;;;;;;;;;;;;;;;
2023/07/24 01:49:02;;;;;;;4.90;3.50;;;;;;;21.31;63.97;98149.26;226168;1279;22542;-71
2023/07/24 01:54:49;;;;;;;;;;;;;;;;;;;;;
2023/07/24 02:00:12;;;;;;;3.80;3.30;;;;;;;21.16;64.61;98135.71;226194;1276;23274;-71
2023/07/24 02:05:42;;;;;;;3.70;3.30;;;;;;;21.09;65.06;98133.56;226695;1275;22522;-71
2023/07/24 02:11:20;;;;;;;;;;;;;;;;;;;;;
2023/07/24 02:16:57;;;;;;;4.70;3.70;;;;;;;20.97;65.85;98126.27;226884;1275;22530;-71
2023/07/24 02:22:56;;;;;;;;;;;;;;;;;;;;;
2023/07/24 02:28:53;;;;;;;5.20;3.50;;;;;;;20.75;66.24;98117.23;226885;1275;24287;-71
2023/07/24 02:34:35;;;;;;;4.10;3.50;;;;;;;20.61;66.51;98119.93;226911;1271;22541;-72
2023/07/24 02:40:06;;;;;;;4.60;3.90;;;;;;;20.47;66.72;98123.58;226992;1275;22555;-71
2023/07/24 02:45:53;;;;;;;;;;;;;;;;;;;;;
2023/07/24 02:51:09;;;;;;;9.30;8.20;;;;;;;20.22;67.12;98126.36;226941;1275;22529;-71
2023/07/24 02:56:21;;;;;;;5.60;4.70;;;;;;;20.11;67.38;98123.45;226965;1275;22529;-71
2023/07/24 03:01:34;;;;;;;4.10;3.70;;;;;;;20.00;67.64;98124.29;226787;1275;22961;-71
2023/07/24 03:06:45;;;;;;;7.00;4.20;;;;;;;19.91;68.06;98113.33;226853;1273;22534;-71
2023/07/24 03:12:04;;;;;;;5.40;4.10;;;;;;;19.83;68.36;98116.84;226875;1272;22546;-71
2023/07/24 03:17:18;;;;;;;;;;;;;;;;;;;;;
2023/07/24 03:22:28;;;;;;;7.80;4.80;;;;;;;19.75;69.21;98127.90;226791;1275;22545;-70
2023/07/24 03:27:58;;;;;;;4.80;4.30;;;;;;;19.74;69.65;98137.93;226823;1275;22580;-70
2023/07/24 03:33:09;;;;;;;6.60;4.40;;;;;;;19.77;69.97;98136.54;226876;1272;22537;-71
2023/07/24 03:38:32;;;;;;;5.70;5.00;;;;;;;19.79;70.10;98139.61;226892;1272;22538;-71
2023/07/24 03:43:46;;;;;;;5.90;4.10;;;;;;;19.86;70.17;98136.84;226921;1275;22706;-71
2023/07/24 03:49:19;;;;;;;4.50;3.90;;;;;;;20.01;70.17;98135.34;227014;1275;22578;-71
2023/07/24 03:54:46;;;;;;;6.00;4.20;;;;;;;20.10;70.20;98140.39;226926;1272;22538;-70
2023/07/24 04:00:13;;;;;;;4.30;3.90;;;;;;;20.19;70.29;98147.77;226894;1275;25558;-70
2023/07/24 04:05:34;;;;;;;7.40;4.90;;;;;;;20.31;70.61;98149.09;226982;1275;22598;-70
2023/07/24 04:11:12;;;;;;;6.00;5.20;;;;;;;20.45;70.77;98145.80;226921;1275;23302;-71
2023/07/24 04:16:23;;;;;;;5.10;4.10;;;;;;;20.55;70.62;98140.81;226871;1275;22541;-71
2023/07/24 04:21:39;;;;;;;4.90;4.40;;;;;;;20.64;70.81;98145.91;226909;1275;25015;-71
2023/07/24 04:26:42;;;;;;;8.80;5.00;;;;;;;20.78;70.96;98139.80;226884;1272;22529;-71
2023/07/24 04:32:11;;;;;;;6.00;4.50;;;;;;;20.97;70.97;98139.83;226829;1272;22532;-72
2023/07/24 04:37:21;;;;;;;5.20;4.70;;;;;;;21.20;70.99;98141.73;226842;1275;22812;-72
2023/07/24 04:42:32;;;;;;;5.70;4.30;;;;;;;21.38;71.07;98143.95;226929;1271;25271;-71
2023/07/24 04:48:18;;;;;;;5.10;4.60;;;;;;;21.57;71.49;98141.96;226936;1275;22544;-71
2023/07/24 04:53:32;;;;;;;6.90;5.10;;;;;;;21.70;71.51;98137.98;226957;1275;22517;-72
2023/07/24 04:58:40;;;;;;;5.90;5.00;;;;;;;21.84;71.56;98138.73;226939;1270;22599;-71
2023/07/24 05:03:46;;;;;;;5.40;4.80;;;;;;;21.98;71.48;98138.66;226822;1272;22584;-71
2023/07/24 05:09:06;;;;;;;;;;;;;;;;;;;;;
2023/07/24 05:14:23;;;;;;;6.40;5.40;;;;;;;22.30;71.11;98144.90;226943;1275;22589;-70
2023/07/24 05:19:50;;;;;;;;;;;;;;;;;;;;;
2023/07/24 05:25:33;;;;;;;6.40;5.30;;;;;;;22.68;70.63;98143.01;226902;1275;22566;-71
2023/07/24 05:31:27;;;;;;;;;;;;;;;;;;;;;
2023/07/24 05:37:19;;;;;;;7.70;5.20;;;;;;;23.12;69.86;98144.52;227004;1256;22589;-71
2023/07/24 05:43:12;;;;;;;10.10;7.70;;;;;;;23.29;69.30;98143.91;226805;1272;22558;-71
2023/07/24 05:49:14;;;;;;;;;;;;;;;;;;;;;
2023/07/24 05:55:17;;;;;;;8.40;5.40;;;;;;;23.62;68.56;98159.21;226611;1270;22599;-74
2023/07/24 06:00:22;;;;;;;7.00;5.40;;;;;;;23.76;68.23;98162.02;226531;1254;23116;-70
2023/07/24 06:05:24;;;;;;;7.20;5.50;;;;;;;23.89;68.08;98160.77;226388;1269;22611;-70
2023/07/24 06:10:27;;;;;;;6.20;5.60;;;;;;;23.96;67.13;98162.03;226343;1270;22621;-71
2023/07/24 06:15:29;;;;;;;6.30;5.70;;;;;;;23.96;66.35;98153.13;226210;1272;22596;-71
2023/07/24 06:20:41;;;;;;;7.70;5.90;;;;;;;24.04;66.45;98144.27;226160;1275;22569;-71
2023/07/24 06:25:44;;;;;;;7.70;6.10;;;;;;;24.11;66.32;98144.88;226111;1260;22949;-73
2023/07/24 06:30:55;;;;;;;6.40;5.80;;;;;;;24.17;66.22;98138.27;226198;1256;22543;-72
2023/07/24 06:35:57;;;;;;;6.30;5.70;;;;;;;24.31;65.96;98130.75;225979;1272;22547;-71
2023/07/24 06:41:19;;;;;;;;;;;;;;;;;;;;;
2023/07/24 06:46:38;;;;;;;5.70;5.10;;;;;;;24.53;64.49;98129.05;226345;1275;22541;-71
2023/07/24 06:52:17;;;;;;;6.00;5.40;;;;;;;24.67;63.63;98117.76;226070;1276;24333;-72
2023/07/24 06:57:23;;;;;;;5.90;5.30;;;;;;;24.85;63.12;98113.08;226191;1266;22579;-71
2023/07/24 07:02:32;;;;;;;6.30;5.70;;;;;;;25.07;63.18;98101.36;226134;1273;22582;-71
2023/07/24 07:07:53;;;;;;;8.10;6.30;;;;;;;25.32;62.62;98096.39;226151;1257;22531;-72
2023/07/24 07:13:00;;;;;;;7.20;5.90;;;;;;;25.51;61.85;98095.78;226182;1275;25272;-72
2023/07/24 07:18:22;;;;;;;9.00;6.10;;;;;;;25.66;61.57;98090.14;226295;1270;24218;-71
2023/07/24 07:23:35;;;;;;;9.20;6.70;;;;;;;25.83;60.41;98088.75;226225;1272;22555;-71
2023/07/24 07:28:39;;;;;;;7.20;6.30;;;;;;;26.17;60.69;98082.73;226308;1271;22535;-71
2023/07/24 07:33:52;;;;;;;;;;;;;;;;;;;;;
2023/07/24 07:39:09;;;;;;;;;;;;;;;;;;;;;
2023/07/24 07:44:12;;;;;;;6.60;5.90;;;;;;;26.86;58.79;98080.23;225798;1266;25227;-71
2023/07/24 07:49:23;;;;;;;9.40;6.10;;;;;;;26.95;57.68;98078.94;226275;1260;22529;-71
2023/07/24 07:54:25;;;;;;;6.70;6.00;;;;;;;26.99;56.35;98075.73;225982;1263;23018;-71
2023/07/24 07:59:39;;;;;;;8.50;6.40;;;;;;;27.16;55.42;98072.20;225962;1264;22549;-71
2023/07/24 08:04:44;;;;;;;6.20;5.60;;;;;;;27.37;55.54;98067.20;226188;1256;22537;-72
2023/07/24 08:09:46;;;;;;;6.30;5.70;;;;;;;27.66;54.78;98074.80;226007;1254;22584;-72
2023/07/24 08:14:48;;;;;;;8.20;6.90;;;;;;;27.80;52.94;98052.69;226127;1269;22536;-72
2023/07/24 08:19:51;;;;;;;6.60;5.90;;;;;;;27.77;50.72;98049.07;226071;1260;25271;-72
2023/07/24 08:24:54;;;;;;;8.10;6.00;;;;;;;27.78;50.51;98061.27;226031;1266;22744;-72
2023/07/24 08:29:58;;;;;;;8.10;5.20;;;;;;;27.96;51.00;98046.15;226070;1257;22602;-73
2023/07/24 08:35:01;;;;;;;6.70;6.10;;;;;;;28.08;51.03;98033.25;226093;1256;22551;-71
2023/07/24 08:40:03;;;;;;;6.50;5.70;;;;;;;28.04;51.26;98038.89;226224;1259;23048;-71
2023/07/24 08:45:12;;;;;;;6.30;5.70;;;;;;;28.19;51.19;98045.80;226005;1269;22656;-70
2023/07/24 08:50:16;;;;;;;11.10;6.20;;;;;;;28.43;50.82;98039.56;226568;1260;22673;-71
2023/07/24 08:55:20;;;;;;;6.20;5.60;;;;;;;28.38;50.34;98027.30;226296;1262;22590;-70
2023/07/24 09:00:22;;;;;;;8.70;6.20;;;;;;;28.37;50.92;98026.71;226117;1267;22591;-70
2023/07/24 09:05:25;;;;;;;7.10;6.20;;;;;;;28.29;50.68;98019.05;226050;1272;22748;-71
2023/07/24 09:10:27;;;;;;;8.90;6.80;;;;;;;28.32;51.81;98003.83;226269;1272;22546;-70
2023/07/24 09:15:29;;;;;;;8.00;6.70;;;;;;;28.52;51.73;98000.94;226270;1273;22547;-70
2023/07/24 09:20:41;;;;;;;7.90;7.00;;;;;;;28.65;51.61;98003.45;226427;1257;22552;-70
2023/07/24 09:25:44;;;;;;;7.70;6.60;;;;;;;28.83;51.74;98004.14;226392;1272;22692;-70
2023/07/24 09:30:55;;;;;;;8.60;6.60;;;;;;;28.93;50.44;98001.23;226298;1264;22543;-70
2023/07/24 09:35:59;;;;;;;7.40;6.30;;;;;;;28.85;49.19;98003.45;226306;1269;22524;-70
2023/07/24 09:41:03;;;;;;;7.00;6.30;;;;;;;28.82;47.88;97999.04;226503;1267;22574;-70
2023/07/24 09:46:09;;;;;;;7.80;7.00;;;;;;;28.91;48.76;97987.54;226509;1261;24173;-71
2023/07/24 09:51:15;;;;;;;8.30;7.40;;;;;;;29.17;48.41;97987.09;226254;1257;22572;-71
2023/07/24 09:56:18;;;;;;;7.70;6.90;;;;;;;29.39;48.01;97989.00;226466;1275;23170;-70
2023/07/24 10:01:23;;;;;;;7.60;6.60;;;;;;;29.56;46.37;97980.63;226610;1253;22548;-70
2023/07/24 10:06:26;;;;;;;7.40;6.70;;;;;;;29.80;46.78;97979.48;226447;1270;22483;-69
2023/07/24 10:11:29;;;;;;;8.60;6.50;;;;;;;30.08;46.62;97984.28;226509;1257;22544;-68
2023/07/24 10:16:32;;;;;;;7.40;6.70;;;;;;;30.30;45.78;97981.77;226500;1261;22544;-70
2023/07/24 10:21:35;;;;;;;8.50;6.90;;;;;;;30.36;45.35;97979.33;226427;1257;22539;-72
2023/07/24 10:26:39;;;;;;;8.30;7.20;;;;;;;30.21;44.95;97976.47;226484;1252;23252;-73
2023/07/24 10:31:52;;;;;;;8.40;7.50;;;;;;;29.96;44.36;97973.23;226404;1253;23653;-73
2023/07/24 10:37:05;;;;;;;11.50;8.00;;;;;;;29.80;44.44;97978.93;226331;1267;22578;-73
2023/07/24 10:42:09;;;;;;;8.70;7.60;;;;;;;29.53;44.21;97976.77;226255;1275;22525;-73
2023/07/24 10:47:12;;;;;;;8.60;6.90;;;;;;;29.22;44.94;97967.25;226254;1275;242455;-73
2023/07/24 10:52:14;;;;;;;8.20;7.40;;;;;;;29.03;45.24;97961.22;226404;1269;22579;-74
2023/07/24 10:57:21;;;;;;;9.20;8.10;;;;;;;29.05;45.55;97960.88;226354;1272;22574;-74
2023/07/24 11:02:24;;;;;;;7.70;6.80;;;;;;;29.42;46.11;97945.71;226255;1264;22771;-74
2023/07/24 11:07:32;;;;;;;8.20;7.40;;;;;;;30.05;45.76;97936.10;226109;1269;23258;-75
2023/07/24 11:12:38;;;;;;;8.60;7.60;;;;;;;30.19;44.80;97934.52;226329;1267;22551;-74
2023/07/24 11:17:42;;;;;;;8.40;7.60;;;;;;;30.46;44.84;97931.40;226242;1272;22552;-73
2023/07/24 11:22:57;;;;;;;8.20;7.30;;;;;;;30.62;44.69;97920.02;226298;1272;22612;-74
2023/07/24 11:28:04;;;;;;;8.90;7.50;;;;;;;30.73;44.33;97911.73;226593;1272;22592;-74
2023/07/24 11:33:08;;;;;;;7.70;7.00;;;;;;;30.70;43.67;97903.21;226319;1264;23674;-74
2023/07/24 11:38:11;;;;;;;8.60;7.70;;;;;;;30.60;43.33;97894.69;226360;1270;22546;-74
2023/07/24 11:43:24;;;;;;;8.30;7.30;;;;;;;30.65;43.78;97884.25;226089;1271;22535;-74
2023/07/24 11:48:26;;;;;;;9.80;6.70;;;;;;;30.80;43.52;97876.88;226366;1257;22537;-74
2023/07/24 11:53:31;;;;;;;9.10;7.90;;;;;;;30.86;43.19;97859.05;226319;1260;22532;-74
2023/07/24 11:58:33;;;;;;;7.80;7.00;;;;;;;31.04;43.06;97852.49;226257;1254;22540;-74
2023/07/24 12:03:35;;;;;;;8.10;7.30;;;;;;;31.19;42.65;97847.36;226333;1270;24318;-74
2023/07/24 12:08:38;;;;;;;8.10;7.30;;;;;;;31.32;42.65;97834.95;226292;1260;25278;-74
2023/07/24 12:13:40;;;;;;;8.90;7.80;;;;;;;31.52;42.75;97823.78;226348;1269;22533;-74
2023/07/24 12:18:43;;;;;;;8.40;7.60;;;;;;;31.70;42.59;97812.42;226460;1257;22544;-73
2023/07/24 12:23:45;;;;;;;8.20;7.50;;;;;;;31.90;42.32;97806.48;226469;1273;25252;-73
2023/07/24 12:28:47;;;;;;;8.60;7.80;;;;;;;31.95;42.02;97803.39;226268;1270;22544;-73
2023/07/24 12:33:49;;;;;;;9.40;8.50;;;;;;;32.00;41.73;97792.77;226483;1273;22602;-73
2023/07/24 12:38:51;;;;;;;9.20;8.00;;;;;;;32.03;42.16;97785.48;226361;1257;22537;-73
2023/07/24 12:43:53;;;;;;;9.50;8.60;;;;;;;32.20;42.30;97776.33;226438;1258;24501;-73
2023/07/24 12:48:55;;;;;;;8.90;8.00;;;;;;;32.43;42.38;97756.56;226500;1269;24257;-73
2023/07/24 12:53:57;;;;;;;9.30;8.30;;;;;;;32.63;41.64;97732.92;226398;1257;22562;-73
2023/07/24 12:59:20;;;;;;;10.40;8.90;;;;;;;32.67;41.73;97728.14;226288;1269;22546;-73
2023/07/24 13:04:23;;;;;;;9.50;8.40;;;;;;;32.78;41.63;97710.52;226363;1270;22650;-73
2023/07/24 13:09:25;;;;;;;8.80;8.00;;;;;;;32.87;41.72;97706.79;226416;1274;22587;-72
2023/07/24 13:14:27;;;;;;;9.70;8.70;;;;;;;32.97;42.19;97701.52;226411;1257;22545;-73
2023/07/24 13:19:30;;;;;;;10.40;8.80;;;;;;;33.21;42.02;97695.58;226454;1272;22563;-74
2023/07/24 13:24:32;;;;;;;10.40;9.00;;;;;;;33.30;41.45;97681.81;226274;1269;25391;-73
2023/07/24 13:29:34;;;;;;;9.80;8.80;;;;;;;33.32;41.40;97677.56;226568;1260;22539;-72
2023/07/24 13:34:37;;;;;;;9.80;8.80;;;;;;;33.38;41.64;97664.83;226281;1257;22650;-74
2023/07/24 13:39:39;;;;;;;9.80;8.30;;;;;;;33.46;41.15;97650.26;226318;1266;22594;-70
2023/07/24 13:44:41;;;;;;;10.10;8.90;;;;;;;33.58;41.61;97639.03;226131;1254;22619;-71
2023/07/24 13:49:43;;;;;;;10.30;8.60;;;;;;;33.75;41.55;97620.10;226308;1267;24212;-70
2023/07/24 13:54:45;;;;;;;10.20;8.70;;;;;;;33.81;41.14;97615.84;226496;1256;22544;-71
2023/07/24 13:59:47;;;;;;;10.30;9.20;;;;;;;33.65;41.14;97614.63;226117;1260;22622;-70
2023/07/24 14:04:49;;;;;;;9.60;8.60;;;;;;;33.46;41.35;97612.98;226092;1272;22796;-70
2023/07/24 14:09:51;;;;;;;10.10;9.00;;;;;;;33.28;41.28;97596.66;226462;1269;22626;-70
2023/07/24 14:14:53;;;;;;;10.90;8.90;;;;;;;33.04;41.53;97598.01;226471;1274;22630;-70
2023/07/24 14:19:55;;;;;;;9.50;8.60;;;;;;;32.74;41.76;97594.64;226495;1273;22580;-71
2023/07/24 14:24:57;;;;;;;10.40;9.00;;;;;;;32.42;42.13;97585.33;226531;1272;23134;-70
2023/07/24 14:29:59;;;;;;;9.50;8.60;;;;;;;32.08;42.40;97589.59;226470;1269;22536;-70
2023/07/24 14:35:01;;;;;;;10.90;8.80;;;;;;;31.62;42.15;97583.48;226418;1273;23232;-69
2023/07/24 14:40:04;;;;;;;9.60;8.70;;;;;;;31.18;42.64;97580.98;226614;1272;22555;-70
2023/07/24 14:45:07;;;;;;;9.90;8.80;;;;;;;30.78;43.22;97577.38;226663;1273;22628;-70
2023/07/24 14:50:10;;;;;;;11.80;8.80;;;;;;;30.45;43.85;97563.69;226787;1272;22580;-70
2023/07/24 14:55:12;;;;;;;10.50;8.70;;;;;;;30.19;44.57;97558.19;226637;1273;22530;-70
2023/07/24 15:00:16;;;;;;;14.40;7.90;;;;;;;29.93;44.91;97606.52;226610;1273;22995;-70
2023/07/24 15:05:18;;;;;;;11.80;8.10;;;;;;;29.35;46.14;97584.27;226748;1273;22530;-70
2023/07/24 15:10:21;;;;;;;9.50;7.90;;;;;;;28.54;47.08;97565.72;226822;1269;22575;-69
2023/07/24 15:15:26;;;;;;;9.30;7.80;;;;;;;27.88;48.59;97576.63;226772;1272;22541;-69
2023/07/24 15:20:28;;;;;;;11.00;8.30;;;;;;;27.39;50.02;97561.70;226661;1273;24884;-70
2023/07/24 15:25:33;;;;;;;10.80;8.40;;;;;;;27.04;51.40;97536.84;226653;1276;22533;-69
2023/07/24 15:30:35;;;;;;;10.60;8.50;;;;;;;26.76;52.81;97569.34;226738;1272;25243;-69
2023/07/24 15:35:37;;;;;;;12.40;8.70;;;;;;;26.50;54.82;97631.77;226785;1272;24292;-69
2023/07/24 15:40:40;;;;;;;12.30;8.10;;;;;;;26.26;54.93;97615.44;226805;1270;22653;-70
2023/07/24 15:45:42;;;;;;;11.90;7.80;;;;;;;25.93;55.32;97576.13;226794;1272;23099;-70
2023/07/24 15:50:53;;;;;;;10.10;7.90;;;;;;;25.92;56.60;97561.16;226776;1272;22752;-70
2023/07/24 15:55:55;;;;;;;9.70;8.00;;;;;;;25.94;57.32;97534.03;226739;1269;22549;-71
2023/07/24 16:00:57;;;;;;;10.40;7.90;;;;;;;26.08;57.76;97537.50;226708;1273;22542;-70
2023/07/24 16:05:59;;;;;;;10.30;7.80;;;;;;;26.15;57.56;97527.58;226711;1273;22566;-70
2023/07/24 16:11:02;;;;;;;10.90;8.20;;;;;;;26.17;57.27;97541.00;226755;1273;23034;-70
2023/07/24 16:16:04;;;;;;;9.80;7.80;;;;;;;26.08;57.17;97560.79;226789;1269;23183;-70
2023/07/24 16:21:07;;;;;;;8.70;7.40;;;;;;;25.93;56.91;97558.62;226715;1273;22541;-70
2023/07/24 16:26:09;;;;;;;9.90;8.20;;;;;;;25.89;56.79;97542.43;226701;1269;22544;-70
2023/07/24 16:31:17;;;;;;;9.50;8.20;;;;;;;25.86;56.90;97548.63;226702;1276;22564;-71
2023/07/24 16:36:20;;;;;;;9.80;7.90;;;;;;;25.89;57.09;97537.40;226718;1272;24230;-70
2023/07/24 16:41:22;;;;;;;10.80;8.50;;;;;;;25.93;57.49;97556.87;226639;1269;25929;-70
2023/07/24 16:46:24;;;;;;;10.40;8.20;;;;;;;25.93;57.40;97558.43;226802;1272;22521;-71
2023/07/24 16:51:27;;;;;;;10.20;9.10;;;;;;;25.89;57.10;97567.71;226762;1272;22539;-70
2023/07/24 16:56:30;;;;;;;10.20;8.80;;;;;;;25.93;57.15;97546.58;226710;1272;22533;-70
2023/07/24 17:01:33;;;;;;;9.70;8.60;;;;;;;25.90;56.59;97537.14;226752;1272;22538;-70
2023/07/24 17:06:37;;;;;;;10.70;9.60;;;;;;;25.80;56.71;97532.42;226650;1270;25243;-70
2023/07/24 17:11:39;;;;;;;10.90;9.70;;;;;;;25.65;57.08;97538.13;226571;1272;22556;-70
2023/07/24 17:16:42;;;;;;;11.60;9.70;;;;;;;25.44;57.48;97575.48;226614;1273;22544;-69
2023/07/24 17:21:44;;;;;;;11.50;9.50;;;;;;;25.22;58.33;97572.17;226734;1272;22549;-69
2023/07/24 17:26:50;;;;;;;11.80;9.40;;;;;;;25.01;58.89;97611.82;226809;1275;22639;-69
2023/07/24 17:31:52;;;;;;;9.70;8.70;;;;;;;24.81;59.35;97606.20;226780;1272;22548;-70
2023/07/24 17:36:55;;;;;;;11.80;8.60;;;;;;;24.59;59.92;97609.32;226666;1273;22546;-70
2023/07/24 17:42:00;;;;;;;10.40;9.20;;;;;;;24.31;60.99;97647.70;226663;1274;22561;-70
2023/07/24 17:47:03;;;;;;;12.60;9.60;;;;;;;23.86;61.88;97666.77;226720;1272;22554;-70
2023/07/24 17:52:06;;;;;;;10.40;7.90;;;;;;;23.55;62.73;97666.83;226665;1255;22545;-72
2023/07/24 17:57:08;;;;;;;10.80;8.10;;;;;;;23.29;63.88;97660.20;226490;1268;22537;-70
2023/07/24 18:02:13;;;;;;;10.00;8.20;;;;;;;23.01;65.17;97644.52;226714;1272;25549;-71
2023/07/24 18:07:19;;;;;;;9.20;7.90;;;;;;;22.63;66.16;97607.27;226712;1269;25326;-71
2023/07/24 18:12:21;;;;;;;10.50;8.20;;;;;;;22.29;67.40;97581.64;226691;1272;22539;-71
2023/07/24 18:17:24;;;;;;;9.10;8.10;;;;;;;22.00;68.40;97564.52;226648;1273;22546;-71
2023/07/24 18:22:29;;;;;;;12.00;8.20;;;;;;;21.73;69.46;97588.28;226633;1273;22545;-70
2023/07/24 18:27:32;;;;;;;10.30;7.90;;;;;;;21.44;69.98;97552.04;226690;1272;22594;-70
2023/07/24 18:32:38;;;;;;;11.60;8.30;;;;;;;21.27;70.99;97525.05;226692;1276;22561;-69
2023/07/24 18:37:44;;;;;;;10.90;7.60;;;;;;;21.12;71.54;97517.69;226662;1269;22684;-69
2023/07/24 18:42:48;;;;;;;10.50;7.80;;;;;;;20.97;72.16;97517.32;226662;1272;22685;-69
2023/07/24 18:47:55;;;;;;;12.60;9.40;;;;;;;20.78;72.69;97516.40;226699;1273;22545;-71
2023/07/24 18:53:16;;;;;;;11.00;8.60;;;;;;;20.61;73.30;97510.84;226649;1276;22554;-70
2023/07/24 18:58:19;;;;;;;11.90;8.70;;;;;;;20.49;74.01;97505.15;226702;1275;22551;-70
2023/07/24 19:03:32;;;;;;;10.60;8.80;;;;;;;20.39;74.47;97490.33;226469;1272;22551;-70
2023/07/24 19:08:55;;;;;;;11.00;9.00;;;;;;;20.29;74.91;97498.34;226712;1276;22539;-69
2023/07/24 19:13:58;;;;;;;14.00;10.70;;;;;;;20.24;75.58;97507.92;226607;1276;24232;-70
2023/07/24 19:19:07;;;;;;;13.50;9.70;;;;;;;20.20;75.94;97495.08;226714;1265;22596;-69
2023/07/24 19:24:18;;;;;;;12.00;9.40;;;;;;;20.14;76.20;97469.49;226652;1269;22602;-69
2023/07/24 19:29:26;;;;;;;12.60;9.80;;;;;;;20.07;76.41;97479.57;226690;1256;22548;-70
2023/07/24 19:34:56;;;;;;;10.60;9.00;;;;;;;20.02;76.72;97501.19;226620;1276;22552;-70
2023/07/24 19:40:04;;;;;;;32.20;26.10;;;;;;;19.98;76.91;97510.11;226728;1276;25286;-69
2023/07/24 19:45:07;;;;;;;14.80;11.80;;;;;;;19.95;77.12;97510.99;226552;1273;22540;-69
2023/07/24 19:50:31;;;;;;;9.90;8.00;;;;;;;19.84;77.31;97504.20;226767;1267;22532;-69
2023/07/24 19:55:36;;;;;;;8.60;7.70;;;;;;;19.74;77.56;97493.88;226658;1276;22549;-69
2023/07/24 20:00:57;;;;;;;8.00;7.10;;;;;;;19.67;77.90;97489.05;226646;1274;22534;-69
2023/07/24 20:06:02;;;;;;;10.70;8.50;;;;;;;19.62;78.19;97491.05;226728;1272;22554;-69
2023/07/24 20:11:32;;;;;;;;;;;;;;;19.61;78.62;97486.33;226649;1276;22546;-69
2023/07/24 20:16:42;;;;;;;7.30;6.30;;;;;;;19.62;78.71;97483.16;226670;1276;22559;-69
2023/07/24 20:21:51;;;;;;;7.50;6.10;;;;;;;19.63;78.88;97470.35;226746;1276;22534;-70
2023/07/24 20:27:01;;;;;;;8.00;5.80;;;;;;;19.64;78.80;97471.80;226683;1276;22547;-69
2023/07/24 20:32:16;;;;;;;7.00;5.40;;;;;;;19.65;78.92;97471.73;226534;1275;22539;-69
2023/07/24 20:37:19;;;;;;;6.80;5.40;;;;;;;19.67;78.84;97467.44;226771;1272;22547;-70
2023/07/24 20:42:24;;;;;;;6.60;4.60;;;;;;;19.68;78.86;97480.57;226686;1273;22547;-69
2023/07/24 20:47:30;;;;;;;6.90;5.20;;;;;;;19.70;78.72;97465.61;226639;1273;22551;-69
2023/07/24 20:52:38;;;;;;;6.20;4.70;;;;;;;19.72;78.57;97486.65;226722;1272;22551;-69
2023/07/24 20:57:44;;;;;;;6.80;5.20;;;;;;;19.74;78.47;97486.84;226738;1272;22600;-69
2023/07/24 21:02:51;;;;;;;5.30;4.20;;;;;;;19.74;78.40;97499.76;226681;1276;22556;-69
2023/07/24 21:08:12;;;;;;;5.40;4.70;;;;;;;19.72;78.45;97517.70;226623;1276;24303;-69
2023/07/24 21:13:19;;;;;;;5.10;4.60;;;;;;;19.66;78.70;97506.52;226626;1276;22571;-70
2023/07/24 21:18:27;;;;;;;6.20;5.20;;;;;;;19.60;78.89;97499.64;226653;1276;22545;-70
2023/07/24 21:23:29;;;;;;;7.50;5.10;;;;;;;19.55;79.05;97501.02;226763;1272;22540;-70
2023/07/24 21:28:37;;;;;;;8.70;5.10;;;;;;;19.52;79.35;97503.55;226605;1274;22510;-70
2023/07/24 21:34:02;;;;;;;5.90;5.20;;;;;;;19.47;79.59;97499.10;226740;1272;22547;-70
2023/07/24 21:39:24;;;;;;;6.60;5.20;;;;;;;19.41;79.67;97482.69;226655;1274;24199;-70
2023/07/24 21:44:30;;;;;;;7.20;5.30;;;;;;;19.36;79.77;97480.03;226637;1275;22568;-70
2023/07/24 21:49:35;;;;;;;6.60;5.20;;;;;;;19.29;79.96;97481.84;226536;1273;22562;-71
2023/07/24 21:54:37;;;;;;;6.50;5.50;;;;;;;19.20;80.19;97500.35;226615;1274;22544;-70
2023/07/24 21:59:42;;;;;;;7.00;5.80;;;;;;;19.09;80.24;97504.91;226724;1272;22546;-70
2023/07/24 22:04:45;;;;;;;6.80;6.00;;;;;;;19.01;80.31;97496.69;226718;1272;22595;-70
2023/07/24 22:09:48;;;;;;;7.60;6.20;;;;;;;18.91;80.51;97481.84;226647;1273;22547;-70
2023/07/24 22:14:50;;;;;;;8.70;5.60;;;;;;;18.80;80.99;97478.41;226703;1268;25278;-70
2023/07/24 22:19:58;;;;;;;8.40;6.40;;;;;;;18.67;81.45;97486.89;226711;1272;23403;-70
2023/07/24 22:25:02;;;;;;;6.60;5.90;;;;;;;18.60;81.69;97482.13;226620;1274;22536;-70
2023/07/24 22:30:05;;;;;;;10.00;6.10;;;;;;;18.52;81.80;97478.49;226754;1276;25418;-70
2023/07/24 22:35:37;;;;;;;8.80;6.40;;;;;;;18.45;81.89;97480.06;226708;1272;22565;-70
2023/07/24 22:40:39;;;;;;;8.30;6.60;;;;;;;18.40;82.04;97474.39;226729;1276;22559;-70
2023/07/24 22:45:58;;;;;;;8.10;6.70;;;;;;;18.36;82.24;97484.25;226586;1276;175024;-70
2023/07/24 22:51:03;;;;;;;9.30;6.50;;;;;;;18.27;82.52;97485.32;226706;1266;23342;-70
2023/07/24 22:56:19;;;;;;;7.90;6.40;;;;;;;18.21;82.73;97492.23;226687;1272;22648;-70
2023/07/24 23:01:35;;;;;;;9.20;6.90;;;;;;;18.17;82.92;97495.65;226617;1276;24245;-70
2023/07/24 23:07:32;;;;;;;8.90;7.10;;;;;;;18.14;83.53;97500.20;226671;1276;22532;-72
2023/07/24 23:12:44;;;;;;;8.50;6.80;;;;;;;18.14;83.91;97512.27;226579;1276;22540;-70
2023/07/24 23:17:58;;;;;;;12.80;8.10;;;;;;;18.12;83.86;97515.86;226635;1275;22521;-70
2023/07/24 23:23:14;;;;;;;10.50;7.80;;;;;;;18.09;83.85;97511.65;226757;1265;22562;-70
2023/07/24 23:28:36;;;;;;;10.30;7.80;;;;;;;18.05;84.27;97511.43;226781;1272;22683;-70
2023/07/24 23:34:02;;;;;;;10.80;8.30;;;;;;;17.99;84.44;97513.08;226757;1272;22531;-70
2023/07/24 23:39:25;;;;;;;12.90;8.70;;;;;;;17.96;84.52;97503.93;226708;1275;22533;-70
2023/07/24 23:44:28;;;;;;;14.70;8.90;;;;;;;17.92;84.69;97493.36;226670;1275;22539;-70
2023/07/24 23:49:33;;;;;;;11.40;8.20;;;;;;;17.89;84.63;97499.55;226605;1276;22533;-70
2023/07/24 23:54:36;;;;;;;11.40;9.30;;;;;;;17.87;84.94;97510.98;226729;1276;22666;-70
2023/07/24 23:59:47;;;;;;;12.40;9.10;;;;;;;17.84;84.81;97510.07;226634;1276;22536;-70
